createdAt,value
2023-01-01T00:04:29.105Z,74.2317
2023-01-01T00:09:30.778Z,74.75312
2023-01-01T00:14:32.496Z,73.68694
2023-01-01T00:19:34.174Z,74.51629
2023-01-01T00:24:35.856Z,75.18202
2023-01-01T00:29:37.622Z,74.10085
2023-01-01T00:34:39.243Z,73.85645
2023-01-01T00:39:40.955Z,74.83422
2023-01-01T00:44:42.700Z,75.24654
2023-01-01T00:48:00.888Z,73.86042
2023-01-01T00:53:02.406Z,74.40879
2023-01-01T00:58:04.004Z,74.0623
2023-01-01T01:03:05.907Z,74.0476
2023-01-01T01:08:07.532Z,74.08567
2023-01-01T01:13:09.153Z,75.08029
2023-01-01T01:18:10.784Z,74.67355
2023-01-01T01:23:12.420Z,72.32114
2023-01-01T01:28:14.065Z,71.50834
2023-01-01T01:33:15.667Z,74.22426
2023-01-01T01:38:17.280Z,72.31288
2023-01-01T01:43:18.932Z,73.40674
2023-01-01T01:48:20.638Z,74.56807
2023-01-01T01:53:22.405Z,74.59258
2023-01-01T01:58:24.022Z,72.69482
2023-01-01T02:03:25.801Z,72.17233
2023-01-01T02:08:27.459Z,73.11344
2023-01-01T02:13:29.086Z,74.09325
2023-01-01T02:18:30.795Z,74.4954
2023-01-01T02:23:32.643Z,75.9877
2023-01-01T02:28:34.240Z,75.01861
2023-01-01T02:33:35.941Z,75.84194
2023-01-01T02:38:37.613Z,73.88077
2023-01-01T02:43:39.220Z,73.64419
2023-01-01T02:48:40.849Z,74.0111
2023-01-01T02:53:42.548Z,74.1443
2023-01-01T02:58:44.260Z,73.41921
2023-01-01T03:03:45.947Z,73.35281
2023-01-01T03:08:47.614Z,73.49723
2023-01-01T03:13:49.286Z,72.50658
2023-01-01T03:18:50.937Z,74.61384
2023-01-01T03:23:52.596Z,73.69529
2023-01-01T03:28:54.415Z,74.46357
2023-01-01T03:33:56.035Z,77.85035
2023-01-01T03:38:57.630Z,79.87728
2023-01-01T03:43:59.394Z,79.47245
2023-01-01T03:49:04.087Z,80.0632
2023-01-01T03:54:06.182Z,78.50763
2023-01-01T03:59:07.827Z,73.7476
2023-01-01T04:04:09.523Z,72.04963
2023-01-01T04:09:11.130Z,73.72202
2023-01-01T04:14:12.741Z,73.93373
2023-01-01T04:19:14.397Z,72.53534
2023-01-01T04:24:16.235Z,72.88407
2023-01-01T04:29:17.863Z,81.44483
2023-01-01T04:34:19.549Z,76.56368
2023-01-01T04:39:21.188Z,74.84197
2023-01-01T04:44:22.778Z,74.78535
2023-01-01T04:49:24.367Z,74.63847
2023-01-01T04:54:26.014Z,74.9739
2023-01-01T04:59:27.678Z,74.07441
2023-01-01T05:04:29.309Z,75.28737
2023-01-01T05:09:30.998Z,76.22365
2023-01-01T05:14:32.705Z,74.0032
2023-01-01T05:19:34.358Z,74.16466
2023-01-01T05:24:35.982Z,74.46712
2023-01-01T05:29:37.681Z,72.71822
2023-01-01T05:34:39.575Z,75.31059
2023-01-01T05:39:41.163Z,76.08488
2023-01-01T05:44:42.780Z,73.4032
2023-01-01T05:49:44.490Z,73.6415
2023-01-01T05:54:46.095Z,74.69108
2023-01-01T05:59:47.663Z,75.73469
2023-01-01T06:04:49.324Z,74.60769
2023-01-01T06:09:50.923Z,77.84271
2023-01-01T06:14:52.506Z,78.01628
2023-01-01T06:19:54.166Z,77.84257
2023-01-01T06:24:55.793Z,78.72692
2023-01-01T06:29:57.524Z,78.52833
2023-01-01T06:34:59.166Z,78.61517
2023-01-01T06:40:00.826Z,77.60904
2023-01-01T06:45:02.567Z,74.76964
2023-01-01T06:50:04.542Z,76.32418
2023-01-01T06:55:06.468Z,78.71301
2023-01-01T07:00:08.116Z,78.20974
2023-01-01T07:05:09.740Z,77.42278
2023-01-01T07:10:11.445Z,76.09838
2023-01-01T07:15:13.134Z,78.00911
2023-01-01T07:20:14.805Z,75.86841
2023-01-01T07:25:16.471Z,76.2631
2023-01-01T07:30:18.208Z,75.912
2023-01-01T07:35:19.853Z,76.81074
2023-01-01T07:40:21.535Z,77.52821
2023-01-01T07:45:23.210Z,75.99226
2023-01-01T07:50:24.826Z,77.60838
2023-01-01T07:55:26.517Z,76.95866
2023-01-01T08:00:28.213Z,76.08947
2023-01-01T08:05:29.953Z,77.88955
2023-01-01T08:10:31.594Z,75.96373
2023-01-01T08:15:33.254Z,75.99036
2023-01-01T08:20:34.832Z,77.27418
2023-01-01T08:25:36.773Z,77.7392
2023-01-01T08:30:38.432Z,75.05543
2023-01-01T08:35:40.068Z,76.97841
2023-01-01T08:40:41.696Z,75.6936
2023-01-01T08:45:43.342Z,76.12438
2023-01-01T08:50:44.990Z,78.07837
2023-01-01T08:55:46.679Z,75.83025
2023-01-01T09:00:48.260Z,75.96689
2023-01-01T09:05:49.995Z,76.80842
2023-01-01T09:10:51.605Z,75.02554
2023-01-01T09:15:53.265Z,74.93645
2023-01-01T09:20:54.978Z,74.93489
2023-01-01T09:25:56.626Z,74.97713
2023-01-01T09:30:58.264Z,76.02592
2023-01-01T09:35:59.936Z,76.452
2023-01-01T09:41:01.578Z,76.54118
2023-01-01T09:46:03.225Z,74.36688
2023-01-01T09:51:04.909Z,75.82447
2023-01-01T09:56:06.543Z,75.16877
2023-01-01T10:01:08.276Z,74.17582
2023-01-01T10:06:09.958Z,75.05002
2023-01-01T10:11:11.574Z,75.22769
2023-01-01T10:16:13.320Z,74.50696
2023-01-01T10:21:15.026Z,75.30013
2023-01-01T10:26:16.679Z,74.38933
2023-01-01T10:31:18.330Z,75.42141
2023-01-01T10:36:20.054Z,77.09414
2023-01-01T10:41:21.781Z,75.60049
2023-01-01T10:46:29.575Z,75.96443
2023-01-01T10:51:33.600Z,75.69602
2023-01-01T10:56:35.309Z,75.82095
2023-01-01T11:01:37.041Z,73.39298
2023-01-01T11:06:38.767Z,75.81292
2023-01-01T11:11:40.487Z,77.05577
2023-01-01T11:16:42.208Z,74.37718
2023-01-01T11:21:43.816Z,75.13961
2023-01-01T11:26:50.573Z,75.51738
2023-01-01T11:31:56.006Z,74.48096
2023-01-01T11:36:57.676Z,72.95445
2023-01-01T11:41:59.376Z,73.52661
2023-01-01T11:47:01.087Z,75.74786
2023-01-01T11:52:02.734Z,76.63169
2023-01-01T11:57:04.396Z,74.44842
2023-01-01T12:02:06.024Z,74.04363
2023-01-01T12:07:07.687Z,76.58229
2023-01-01T12:12:09.323Z,74.1944
2023-01-01T12:17:10.940Z,75.32417
2023-01-01T12:22:12.667Z,72.82692
2023-01-01T12:27:14.344Z,74.51066
2023-01-01T12:32:15.960Z,72.51866
2023-01-01T12:37:17.689Z,74.31018
2023-01-01T12:42:19.397Z,74.72512
2023-01-01T12:47:22.579Z,74.77896
2023-01-01T12:52:24.205Z,74.13151
2023-01-01T12:57:25.910Z,74.44757
2023-01-01T13:02:27.631Z,76.73192
2023-01-01T13:07:29.427Z,74.41733
2023-01-01T13:12:31.015Z,75.08265
2023-01-01T13:17:32.594Z,76.09755
2023-01-01T13:22:34.231Z,73.94221
2023-01-01T13:27:35.835Z,73.22513
2023-01-01T13:32:37.487Z,76.58043
2023-01-01T13:37:39.142Z,76.54515
2023-01-01T13:42:40.872Z,73.93332
2023-01-01T13:47:42.529Z,74.79694
2023-01-01T13:52:44.246Z,76.38102
2023-01-01T13:57:46.083Z,75.08052
2023-01-01T14:02:47.935Z,74.21485
2023-01-01T14:07:51.567Z,74.01697
2023-01-01T14:12:53.863Z,74.47753
2023-01-01T14:17:55.544Z,73.82698
2023-01-01T14:22:57.184Z,74.28539
2023-01-01T14:27:58.818Z,74.84019
2023-01-01T14:33:00.465Z,77.19603
2023-01-01T14:38:02.135Z,77.5859
2023-01-01T14:43:03.712Z,77.48313
2023-01-01T14:48:05.365Z,75.85236
2023-01-01T14:53:06.996Z,78.67018
2023-01-01T14:58:08.596Z,75.49426
2023-01-01T15:03:10.162Z,75.57057
2023-01-01T15:08:11.771Z,74.44889
2023-01-01T15:13:13.372Z,74.30971
2023-01-01T15:18:14.963Z,75.87716
2023-01-01T15:23:16.596Z,77.07659
2023-01-01T15:28:18.228Z,77.56849
2023-01-01T15:33:19.829Z,80.62923
2023-01-01T15:38:21.431Z,81.76668
2023-01-01T15:43:23.108Z,74.61979
2023-01-01T15:48:24.737Z,74.54462
2023-01-01T15:53:26.487Z,76.45928
2023-01-01T15:58:28.117Z,75.36842
2023-01-01T16:03:29.909Z,77.33189
2023-01-01T16:08:31.654Z,76.65807
2023-01-01T16:13:33.313Z,79.61508
2023-01-01T16:18:34.977Z,78.28048
2023-01-01T16:23:36.706Z,75.54015
2023-01-01T16:28:38.365Z,76.58112
2023-01-01T16:33:40.002Z,77.44664
2023-01-01T16:38:41.609Z,73.58358
2023-01-01T16:43:43.235Z,75.05723
2023-01-01T16:48:44.876Z,76.85344
2023-01-01T16:53:46.481Z,77.46195
2023-01-01T16:58:50.503Z,80.24218
2023-01-01T17:03:53.107Z,76.84387
2023-01-01T17:08:54.699Z,79.52012
2023-01-01T17:13:56.351Z,76.31971
2023-01-01T17:19:16.766Z,74.038
2023-01-01T17:24:19.156Z,72.14888
2023-01-01T17:29:20.864Z,71.07775
2023-01-01T17:34:22.668Z,70.05644
2023-01-01T17:39:24.286Z,73.17133
2023-01-01T17:44:25.886Z,70.15595
2023-01-01T17:49:27.539Z,74.81315
2023-01-01T17:54:29.133Z,75.48829
2023-01-01T17:59:30.753Z,75.49619
2023-01-01T18:04:32.433Z,76.56085
2023-01-01T18:09:34.027Z,75.34659
2023-01-01T18:14:35.607Z,74.57853
2023-01-01T18:19:37.245Z,74.98673
2023-01-01T18:24:38.879Z,72.19263
2023-01-01T18:29:40.493Z,73.0291
2023-01-01T18:34:42.151Z,72.03036
2023-01-01T18:39:43.822Z,70.99435
2023-01-01T18:44:45.445Z,68.01874
2023-01-01T18:49:47.166Z,69.27029
2023-01-01T18:54:48.842Z,67.11063
2023-01-01T18:59:50.512Z,66.22213
2023-01-01T19:04:52.148Z,68.51156
2023-01-01T19:09:58.906Z,66.23673
2023-01-01T19:15:00.947Z,67.58152
2023-01-01T19:20:02.658Z,68.42694
2023-01-01T19:25:04.304Z,68.76378
2023-01-01T19:30:05.918Z,68.17781
2023-01-01T19:35:10.733Z,67.61071
2023-01-01T19:40:16.438Z,68.29603
2023-01-01T19:45:18.075Z,70.51187
2023-01-01T19:50:20.689Z,66.16408
2023-01-01T19:55:22.451Z,59.77251
2023-01-01T20:00:24.108Z,56.8548
2023-01-01T20:05:30.200Z,56.64727
2023-01-01T20:10:35.329Z,53.26937
2023-01-01T20:15:40.464Z,53.78707
2023-01-01T20:20:45.080Z,56.61515
2023-01-01T20:25:46.779Z,55.48144
2023-01-01T20:30:48.450Z,54.74872
2023-01-01T20:35:50.049Z,55.99487
2023-01-01T20:40:51.686Z,54.02251
2023-01-01T20:45:53.441Z,55.73793
2023-01-01T20:50:55.090Z,55.32443
2023-01-01T20:55:56.711Z,55.03903
2023-01-01T21:00:58.471Z,54.06841
2023-01-01T21:06:00.100Z,53.22285
2023-01-01T21:11:01.733Z,53.17093
2023-01-01T21:16:03.443Z,53.32803
2023-01-01T21:21:05.066Z,51.87343
2023-01-01T21:26:06.700Z,54.16754
2023-01-01T21:31:08.347Z,54.20544
2023-01-01T21:36:09.981Z,54.14716
2023-01-01T21:41:11.606Z,53.9779
2023-01-01T21:46:13.553Z,52.80229
2023-01-01T21:51:15.229Z,53.43486
2023-01-01T21:56:16.871Z,54.75229
2023-01-01T22:01:18.659Z,56.15514
2023-01-01T22:06:20.585Z,53.77982
2023-01-01T22:11:22.231Z,56.28686
2023-01-01T22:16:23.975Z,57.40586
2023-01-01T22:21:25.682Z,58.42537
2023-01-01T22:26:27.405Z,59.16415
2023-01-01T22:31:29.379Z,57.23521
2023-01-01T22:36:31.162Z,58.29148
2023-01-01T22:41:32.808Z,58.91148
2023-01-01T22:46:34.504Z,59.33756
2023-01-01T22:51:36.229Z,57.37245
2023-01-01T22:56:37.976Z,59.08719
2023-01-01T23:01:39.746Z,58.17794
2023-01-01T23:06:41.369Z,60.19041
2023-01-01T23:11:43.036Z,59.57895
2023-01-01T23:16:44.694Z,62.66342
2023-01-01T23:21:46.411Z,62.03632
2023-01-01T23:26:48.213Z,62.53639
2023-01-01T23:31:49.895Z,62.66059
2023-01-01T23:36:51.555Z,62.51396
2023-01-01T23:41:53.196Z,63.06736
2023-01-01T23:46:54.830Z,65.24064
2023-01-01T23:51:56.488Z,66.32913
2023-01-01T23:56:58.165Z,69.40653
